sensor_id;sensor_type;location;lat;lon;timestamp;P1;durP1;ratioP1;P2;durP2;ratioP2
1350;SDS011;669;50.206;9.998;2022-12-24T00:01:07;11.90;;;2.77;;
1350;SDS011;669;50.206;9.998;2022-12-24T00:03:37;8.70;;;2.30;;
1350;SDS011;669;50.206;9.998;2022-12-24T00:06:05;6.13;;;1.60;;
1350;SDS011;669;50.206;9.998;2022-12-24T00:08:34;8.50;;;1.37;;
1350;SDS011;669;50.206;9.998;2022-12-24T00:11:02;5.87;;;1.70;;
1350;SDS011;669;50.206;9.998;2022-12-24T00:13:30;9.07;;;2.33;;
1350;SDS011;669;50.206;9.998;2022-12-24T00:15:57;7.77;;;1.97;;
1350;SDS011;669;50.206;9.998;2022-12-24T00:18:25;5.70;;;2.60;;
1350;SDS011;669;50.206;9.998;2022-12-24T00:20:55;9.70;;;1.80;;
1350;SDS011;669;50.206;9.998;2022-12-24T00:23:23;13.53;;;2.70;;
1350;SDS011;669;50.206;9.998;2022-12-24T00:25:50;9.20;;;1.77;;
1350;SDS011;669;50.206;9.998;2022-12-24T00:28:18;8.23;;;2.77;;
1350;SDS011;669;50.206;9.998;2022-12-24T00:30:46;5.53;;;2.13;;
1350;SDS011;669;50.206;9.998;2022-12-24T00:33:14;6.03;;;1.73;;
1350;SDS011;669;50.206;9.998;2022-12-24T00:35:49;6.40;;;1.83;;
1350;SDS011;669;50.206;9.998;2022-12-24T00:38:20;9.10;;;3.00;;
1350;SDS011;669;50.206;9.998;2022-12-24T00:40:48;7.60;;;2.03;;
1350;SDS011;669;50.206;9.998;2022-12-24T00:43:15;7.53;;;1.93;;
1350;SDS011;669;50.206;9.998;2022-12-24T00:45:43;9.50;;;3.67;;
1350;SDS011;669;50.206;9.998;2022-12-24T00:48:11;9.83;;;1.83;;
1350;SDS011;669;50.206;9.998;2022-12-24T00:50:39;8.07;;;2.73;;
1350;SDS011;669;50.206;9.998;2022-12-24T00:53:07;6.63;;;1.70;;
1350;SDS011;669;50.206;9.998;2022-12-24T00:55:36;7.00;;;2.00;;
1350;SDS011;669;50.206;9.998;2022-12-24T00:58:04;9.63;;;2.20;;
1350;SDS011;669;50.206;9.998;2022-12-24T01:00:32;7.40;;;2.00;;
1350;SDS011;669;50.206;9.998;2022-12-24T01:03:00;5.37;;;1.50;;
1350;SDS011;669;50.206;9.998;2022-12-24T01:05:28;9.90;;;2.27;;
1350;SDS011;669;50.206;9.998;2022-12-24T01:07:55;7.93;;;1.90;;
1350;SDS011;669;50.206;9.998;2022-12-24T01:10:23;9.50;;;2.10;;
1350;SDS011;669;50.206;9.998;2022-12-24T01:12:52;4.57;;;1.90;;
1350;SDS011;669;50.206;9.998;2022-12-24T01:15:20;10.33;;;1.87;;
1350;SDS011;669;50.206;9.998;2022-12-24T01:17:48;3.67;;;1.70;;
1350;SDS011;669;50.206;9.998;2022-12-24T01:20:16;10.33;;;1.90;;
1350;SDS011;669;50.206;9.998;2022-12-24T01:22:44;7.70;;;1.63;;
1350;SDS011;669;50.206;9.998;2022-12-24T01:25:14;5.20;;;2.10;;
1350;SDS011;669;50.206;9.998;2022-12-24T01:27:42;8.90;;;1.80;;
1350;SDS011;669;50.206;9.998;2022-12-24T01:30:12;11.90;;;2.37;;
1350;SDS011;669;50.206;9.998;2022-12-24T01:32:41;9.70;;;2.40;;
1350;SDS011;669;50.206;9.998;2022-12-24T01:35:09;6.83;;;1.90;;
1350;SDS011;669;50.206;9.998;2022-12-24T01:37:37;5.50;;;1.73;;
1350;SDS011;669;50.206;9.998;2022-12-24T01:40:06;6.10;;;2.13;;
1350;SDS011;669;50.206;9.998;2022-12-24T01:42:49;7.20;;;1.70;;
1350;SDS011;669;50.206;9.998;2022-12-24T01:45:48;5.33;;;1.87;;
1350;SDS011;669;50.206;9.998;2022-12-24T01:48:19;6.40;;;3.57;;
1350;SDS011;669;50.206;9.998;2022-12-24T01:50:53;5.83;;;1.63;;
1350;SDS011;669;50.206;9.998;2022-12-24T01:53:25;8.87;;;1.93;;
1350;SDS011;669;50.206;9.998;2022-12-24T01:55:53;15.63;;;3.33;;
1350;SDS011;669;50.206;9.998;2022-12-24T01:58:22;10.73;;;2.13;;
1350;SDS011;669;50.206;9.998;2022-12-24T02:00:53;5.57;;;1.93;;
1350;SDS011;669;50.206;9.998;2022-12-24T02:03:21;6.90;;;1.60;;
1350;SDS011;669;50.206;9.998;2022-12-24T02:05:50;5.10;;;1.53;;
1350;SDS011;669;50.206;9.998;2022-12-24T02:08:19;10.33;;;2.23;;
1350;SDS011;669;50.206;9.998;2022-12-24T02:10:48;4.43;;;1.97;;
1350;SDS011;669;50.206;9.998;2022-12-24T02:13:18;9.00;;;2.03;;
1350;SDS011;669;50.206;9.998;2022-12-24T02:15:51;5.00;;;1.47;;
1350;SDS011;669;50.206;9.998;2022-12-24T02:18:31;5.30;;;1.70;;
1350;SDS011;669;50.206;9.998;2022-12-24T02:21:12;10.40;;;2.20;;
1350;SDS011;669;50.206;9.998;2022-12-24T02:24:01;4.50;;;2.00;;
1350;SDS011;669;50.206;9.998;2022-12-24T02:26:59;10.00;;;2.17;;
1350;SDS011;669;50.206;9.998;2022-12-24T02:30:03;7.90;;;2.33;;
1350;SDS011;669;50.206;9.998;2022-12-24T02:32:44;5.90;;;2.30;;
1350;SDS011;669;50.206;9.998;2022-12-24T02:35:24;8.03;;;1.47;;
1350;SDS011;669;50.206;9.998;2022-12-24T02:38:00;2.23;;;1.60;;
1350;SDS011;669;50.206;9.998;2022-12-24T02:40:33;5.90;;;2.27;;
1350;SDS011;669;50.206;9.998;2022-12-24T02:43:07;9.03;;;2.43;;
1350;SDS011;669;50.206;9.998;2022-12-24T02:45:40;6.93;;;2.00;;
1350;SDS011;669;50.206;9.998;2022-12-24T02:48:12;5.80;;;2.20;;
1350;SDS011;669;50.206;9.998;2022-12-24T02:50:53;13.37;;;2.47;;
1350;SDS011;669;50.206;9.998;2022-12-24T02:53:22;8.50;;;2.07;;
1350;SDS011;669;50.206;9.998;2022-12-24T02:55:53;4.77;;;1.77;;
1350;SDS011;669;50.206;9.998;2022-12-24T02:58:36;9.23;;;2.10;;
1350;SDS011;669;50.206;9.998;2022-12-24T03:01:15;5.47;;;2.33;;
1350;SDS011;669;50.206;9.998;2022-12-24T03:03:59;10.70;;;2.20;;
1350;SDS011;669;50.206;9.998;2022-12-24T03:06:39;9.60;;;2.53;;
1350;SDS011;669;50.206;9.998;2022-12-24T03:09:13;17.33;;;3.37;;
1350;SDS011;669;50.206;9.998;2022-12-24T03:11:47;7.20;;;1.70;;
1350;SDS011;669;50.206;9.998;2022-12-24T03:14:21;6.23;;;1.83;;
1350;SDS011;669;50.206;9.998;2022-12-24T03:16:51;5.23;;;2.40;;
1350;SDS011;669;50.206;9.998;2022-12-24T03:19:19;7.33;;;2.73;;
1350;SDS011;669;50.206;9.998;2022-12-24T03:21:48;4.87;;;1.93;;
1350;SDS011;669;50.206;9.998;2022-12-24T03:24:17;9.43;;;2.13;;
1350;SDS011;669;50.206;9.998;2022-12-24T03:26:46;13.83;;;2.73;;
1350;SDS011;669;50.206;9.998;2022-12-24T03:29:14;6.10;;;1.90;;
1350;SDS011;669;50.206;9.998;2022-12-24T03:31:44;8.80;;;2.43;;
1350;SDS011;669;50.206;9.998;2022-12-24T03:34:16;6.13;;;2.13;;
1350;SDS011;669;50.206;9.998;2022-12-24T03:36:45;8.40;;;2.87;;
1350;SDS011;669;50.206;9.998;2022-12-24T03:39:14;6.13;;;2.23;;
1350;SDS011;669;50.206;9.998;2022-12-24T03:41:42;10.40;;;2.60;;
1350;SDS011;669;50.206;9.998;2022-12-24T03:44:10;8.80;;;1.77;;
1350;SDS011;669;50.206;9.998;2022-12-24T03:46:38;7.40;;;2.00;;
1350;SDS011;669;50.206;9.998;2022-12-24T03:49:06;8.50;;;2.47;;
1350;SDS011;669;50.206;9.998;2022-12-24T03:51:35;6.97;;;2.80;;
1350;SDS011;669;50.206;9.998;2022-12-24T03:54:03;8.00;;;2.30;;
1350;SDS011;669;50.206;9.998;2022-12-24T03:56:31;5.43;;;2.07;;
1350;SDS011;669;50.206;9.998;2022-12-24T03:58:59;14.90;;;2.07;;
1350;SDS011;669;50.206;9.998;2022-12-24T04:01:26;9.93;;;2.23;;
1350;SDS011;669;50.206;9.998;2022-12-24T04:03:55;11.50;;;3.10;;
1350;SDS011;669;50.206;9.998;2022-12-24T04:06:23;10.67;;;2.23;;
1350;SDS011;669;50.206;9.998;2022-12-24T04:08:52;14.07;;;2.70;;
1350;SDS011;669;50.206;9.998;2022-12-24T04:11:20;11.03;;;2.00;;
1350;SDS011;669;50.206;9.998;2022-12-24T04:13:48;6.40;;;1.90;;
1350;SDS011;669;50.206;9.998;2022-12-24T04:16:15;9.23;;;2.40;;
1350;SDS011;669;50.206;9.998;2022-12-24T04:18:43;9.10;;;2.50;;
1350;SDS011;669;50.206;9.998;2022-12-24T04:21:11;24.33;;;3.80;;
1350;SDS011;669;50.206;9.998;2022-12-24T04:23:40;11.87;;;3.07;;
1350;SDS011;669;50.206;9.998;2022-12-24T04:26:11;7.53;;;2.10;;
1350;SDS011;669;50.206;9.998;2022-12-24T04:28:39;12.10;;;3.20;;
1350;SDS011;669;50.206;9.998;2022-12-24T04:31:09;9.80;;;2.67;;
1350;SDS011;669;50.206;9.998;2022-12-24T04:33:38;3.90;;;1.70;;
1350;SDS011;669;50.206;9.998;2022-12-24T04:36:06;7.27;;;2.70;;
1350;SDS011;669;50.206;9.998;2022-12-24T04:38:37;12.53;;;2.67;;
1350;SDS011;669;50.206;9.998;2022-12-24T04:41:05;8.77;;;2.50;;
1350;SDS011;669;50.206;9.998;2022-12-24T04:43:36;10.93;;;2.77;;
1350;SDS011;669;50.206;9.998;2022-12-24T04:46:04;11.47;;;2.87;;
1350;SDS011;669;50.206;9.998;2022-12-24T04:48:33;12.27;;;3.00;;
1350;SDS011;669;50.206;9.998;2022-12-24T04:51:02;4.90;;;2.50;;
1350;SDS011;669;50.206;9.998;2022-12-24T04:53:31;6.53;;;2.30;;
1350;SDS011;669;50.206;9.998;2022-12-24T04:55:59;7.07;;;2.60;;
1350;SDS011;669;50.206;9.998;2022-12-24T04:58:28;12.20;;;2.77;;
1350;SDS011;669;50.206;9.998;2022-12-24T05:01:01;10.70;;;2.93;;
1350;SDS011;669;50.206;9.998;2022-12-24T05:03:31;9.60;;;2.47;;
1350;SDS011;669;50.206;9.998;2022-12-24T05:06:02;12.73;;;2.57;;
1350;SDS011;669;50.206;9.998;2022-12-24T05:08:30;12.83;;;2.40;;
1350;SDS011;669;50.206;9.998;2022-12-24T05:10:59;10.97;;;2.57;;
1350;SDS011;669;50.206;9.998;2022-12-24T05:13:28;12.70;;;3.97;;
1350;SDS011;669;50.206;9.998;2022-12-24T05:16:09;7.70;;;2.53;;
1350;SDS011;669;50.206;9.998;2022-12-24T05:18:37;14.37;;;2.27;;
1350;SDS011;669;50.206;9.998;2022-12-24T05:21:09;4.37;;;2.30;;
1350;SDS011;669;50.206;9.998;2022-12-24T05:23:39;9.10;;;2.93;;
1350;SDS011;669;50.206;9.998;2022-12-24T05:26:26;6.30;;;2.40;;
1350;SDS011;669;50.206;9.998;2022-12-24T05:28:56;7.87;;;2.00;;
1350;SDS011;669;50.206;9.998;2022-12-24T05:31:26;9.80;;;2.30;;
1350;SDS011;669;50.206;9.998;2022-12-24T05:33:56;5.93;;;3.23;;
1350;SDS011;669;50.206;9.998;2022-12-24T05:36:23;9.20;;;2.00;;
1350;SDS011;669;50.206;9.998;2022-12-24T05:38:52;12.47;;;2.93;;
1350;SDS011;669;50.206;9.998;2022-12-24T05:41:20;7.83;;;3.80;;
1350;SDS011;669;50.206;9.998;2022-12-24T05:43:48;4.73;;;2.00;;
1350;SDS011;669;50.206;9.998;2022-12-24T05:46:17;6.90;;;2.23;;
1350;SDS011;669;50.206;9.998;2022-12-24T05:48:47;5.43;;;2.10;;
1350;SDS011;669;50.206;9.998;2022-12-24T05:51:17;8.63;;;1.73;;
1350;SDS011;669;50.206;9.998;2022-12-24T05:53:47;8.67;;;2.00;;
1350;SDS011;669;50.206;9.998;2022-12-24T05:56:17;5.90;;;2.30;;
1350;SDS011;669;50.206;9.998;2022-12-24T05:58:45;11.33;;;2.70;;
1350;SDS011;669;50.206;9.998;2022-12-24T06:01:14;11.97;;;2.70;;
1350;SDS011;669;50.206;9.998;2022-12-24T06:03:42;16.20;;;2.47;;
1350;SDS011;669;50.206;9.998;2022-12-24T06:06:12;6.93;;;2.20;;
1350;SDS011;669;50.206;9.998;2022-12-24T06:08:44;7.30;;;2.03;;
1350;SDS011;669;50.206;9.998;2022-12-24T06:11:13;15.00;;;2.67;;
1350;SDS011;669;50.206;9.998;2022-12-24T06:13:42;5.27;;;2.30;;
1350;SDS011;669;50.206;9.998;2022-12-24T06:16:11;13.70;;;3.00;;
1350;SDS011;669;50.206;9.998;2022-12-24T06:18:40;10.13;;;2.40;;
1350;SDS011;669;50.206;9.998;2022-12-24T06:21:09;5.07;;;2.17;;
1350;SDS011;669;50.206;9.998;2022-12-24T06:23:40;4.30;;;2.30;;
1350;SDS011;669;50.206;9.998;2022-12-24T06:26:10;5.30;;;2.20;;
1350;SDS011;669;50.206;9.998;2022-12-24T06:28:38;5.67;;;2.00;;
1350;SDS011;669;50.206;9.998;2022-12-24T06:31:08;11.40;;;2.60;;
1350;SDS011;669;50.206;9.998;2022-12-24T06:33:38;3.53;;;1.60;;
1350;SDS011;669;50.206;9.998;2022-12-24T06:36:07;6.10;;;2.33;;
1350;SDS011;669;50.206;9.998;2022-12-24T06:38:43;8.50;;;2.23;;
1350;SDS011;669;50.206;9.998;2022-12-24T06:41:11;7.27;;;2.50;;
1350;SDS011;669;50.206;9.998;2022-12-24T06:43:42;6.37;;;2.93;;
1350;SDS011;669;50.206;9.998;2022-12-24T06:46:11;8.20;;;2.50;;
1350;SDS011;669;50.206;9.998;2022-12-24T06:48:39;8.90;;;2.50;;
1350;SDS011;669;50.206;9.998;2022-12-24T06:51:08;10.10;;;2.17;;
1350;SDS011;669;50.206;9.998;2022-12-24T06:53:36;13.07;;;3.17;;
1350;SDS011;669;50.206;9.998;2022-12-24T06:56:06;7.40;;;1.60;;
1350;SDS011;669;50.206;9.998;2022-12-24T06:58:36;8.80;;;2.33;;
1350;SDS011;669;50.206;9.998;2022-12-24T07:01:04;9.53;;;2.57;;
1350;SDS011;669;50.206;9.998;2022-12-24T07:03:34;7.83;;;2.47;;
1350;SDS011;669;50.206;9.998;2022-12-24T07:06:02;5.40;;;1.90;;
1350;SDS011;669;50.206;9.998;2022-12-24T07:08:31;14.57;;;2.83;;
1350;SDS011;669;50.206;9.998;2022-12-24T07:11:01;17.57;;;3.00;;
1350;SDS011;669;50.206;9.998;2022-12-24T07:13:31;9.23;;;3.20;;
1350;SDS011;669;50.206;9.998;2022-12-24T07:16:00;11.57;;;2.80;;
1350;SDS011;669;50.206;9.998;2022-12-24T07:18:29;5.60;;;3.10;;
1350;SDS011;669;50.206;9.998;2022-12-24T07:20:57;4.93;;;1.83;;
1350;SDS011;669;50.206;9.998;2022-12-24T07:23:25;6.57;;;2.37;;
1350;SDS011;669;50.206;9.998;2022-12-24T07:25:53;12.83;;;3.13;;
1350;SDS011;669;50.206;9.998;2022-12-24T07:28:21;8.10;;;2.80;;
1350;SDS011;669;50.206;9.998;2022-12-24T07:30:54;7.93;;;2.37;;
1350;SDS011;669;50.206;9.998;2022-12-24T07:33:23;10.63;;;2.37;;
1350;SDS011;669;50.206;9.998;2022-12-24T07:35:56;8.53;;;2.77;;
1350;SDS011;669;50.206;9.998;2022-12-24T07:38:26;6.43;;;2.37;;
1350;SDS011;669;50.206;9.998;2022-12-24T07:40:54;15.57;;;2.90;;
1350;SDS011;669;50.206;9.998;2022-12-24T07:43:23;10.63;;;2.40;;
1350;SDS011;669;50.206;9.998;2022-12-24T07:45:54;8.53;;;1.90;;
1350;SDS011;669;50.206;9.998;2022-12-24T07:48:23;7.80;;;2.57;;
1350;SDS011;669;50.206;9.998;2022-12-24T07:50:52;10.50;;;2.87;;
1350;SDS011;669;50.206;9.998;2022-12-24T07:53:20;7.80;;;2.30;;
1350;SDS011;669;50.206;9.998;2022-12-24T07:55:48;7.20;;;2.50;;
1350;SDS011;669;50.206;9.998;2022-12-24T07:58:16;8.90;;;2.73;;
1350;SDS011;669;50.206;9.998;2022-12-24T08:00:45;4.90;;;1.93;;
1350;SDS011;669;50.206;9.998;2022-12-24T08:03:16;13.97;;;2.90;;
1350;SDS011;669;50.206;9.998;2022-12-24T08:05:45;10.90;;;3.23;;
1350;SDS011;669;50.206;9.998;2022-12-24T08:08:14;6.43;;;3.00;;
1350;SDS011;669;50.206;9.998;2022-12-24T08:10:42;12.10;;;3.97;;
1350;SDS011;669;50.206;9.998;2022-12-24T08:13:11;10.80;;;2.80;;
1350;SDS011;669;50.206;9.998;2022-12-24T08:15:39;5.87;;;2.27;;
1350;SDS011;669;50.206;9.998;2022-12-24T08:18:07;13.87;;;3.10;;
1350;SDS011;669;50.206;9.998;2022-12-24T08:20:37;9.80;;;3.20;;
1350;SDS011;669;50.206;9.998;2022-12-24T08:23:06;10.60;;;2.80;;
1350;SDS011;669;50.206;9.998;2022-12-24T08:25:35;9.37;;;2.40;;
1350;SDS011;669;50.206;9.998;2022-12-24T08:28:03;15.77;;;2.80;;
1350;SDS011;669;50.206;9.998;2022-12-24T08:30:32;5.30;;;2.00;;
1350;SDS011;669;50.206;9.998;2022-12-24T08:33:00;14.80;;;3.80;;
1350;SDS011;669;50.206;9.998;2022-12-24T08:35:28;25.60;;;4.27;;
1350;SDS011;669;50.206;9.998;2022-12-24T08:37:57;7.13;;;2.50;;
1350;SDS011;669;50.206;9.998;2022-12-24T08:40:25;4.23;;;2.10;;
1350;SDS011;669;50.206;9.998;2022-12-24T08:42:53;11.47;;;2.60;;
1350;SDS011;669;50.206;9.998;2022-12-24T08:45:21;6.90;;;1.93;;
1350;SDS011;669;50.206;9.998;2022-12-24T08:47:49;8.90;;;2.30;;
1350;SDS011;669;50.206;9.998;2022-12-24T08:50:17;10.67;;;1.87;;
1350;SDS011;669;50.206;9.998;2022-12-24T08:52:45;9.80;;;2.40;;
1350;SDS011;669;50.206;9.998;2022-12-24T08:55:15;12.00;;;2.50;;
1350;SDS011;669;50.206;9.998;2022-12-24T08:57:43;7.77;;;2.37;;
1350;SDS011;669;50.206;9.998;2022-12-24T09:00:12;12.20;;;3.20;;
1350;SDS011;669;50.206;9.998;2022-12-24T09:02:40;7.80;;;1.70;;
1350;SDS011;669;50.206;9.998;2022-12-24T09:05:08;8.20;;;2.67;;
1350;SDS011;669;50.206;9.998;2022-12-24T09:07:36;5.50;;;2.10;;
1350;SDS011;669;50.206;9.998;2022-12-24T09:10:04;9.37;;;1.77;;
1350;SDS011;669;50.206;9.998;2022-12-24T09:12:35;8.17;;;1.50;;
1350;SDS011;669;50.206;9.998;2022-12-24T09:15:03;5.07;;;2.30;;
1350;SDS011;669;50.206;9.998;2022-12-24T09:17:33;5.70;;;1.40;;
1350;SDS011;669;50.206;9.998;2022-12-24T09:20:01;5.23;;;1.90;;
1350;SDS011;669;50.206;9.998;2022-12-24T09:22:30;1.90;;;1.33;;
1350;SDS011;669;50.206;9.998;2022-12-24T09:24:57;2.67;;;1.43;;
1350;SDS011;669;50.206;9.998;2022-12-24T09:27:25;3.30;;;1.17;;
1350;SDS011;669;50.206;9.998;2022-12-24T09:29:54;3.07;;;2.50;;
1350;SDS011;669;50.206;9.998;2022-12-24T09:32:22;2.40;;;1.47;;
1350;SDS011;669;50.206;9.998;2022-12-24T09:34:50;4.67;;;1.37;;
1350;SDS011;669;50.206;9.998;2022-12-24T09:37:18;3.40;;;1.20;;
1350;SDS011;669;50.206;9.998;2022-12-24T09:39:46;4.70;;;1.10;;
1350;SDS011;669;50.206;9.998;2022-12-24T09:42:17;6.47;;;1.43;;
1350;SDS011;669;50.206;9.998;2022-12-24T09:44:57;1.60;;;0.90;;
1350;SDS011;669;50.206;9.998;2022-12-24T09:47:31;4.93;;;1.10;;
1350;SDS011;669;50.206;9.998;2022-12-24T09:50:08;7.37;;;1.57;;
1350;SDS011;669;50.206;9.998;2022-12-24T09:52:48;5.13;;;1.80;;
1350;SDS011;669;50.206;9.998;2022-12-24T09:55:19;5.03;;;2.20;;
1350;SDS011;669;50.206;9.998;2022-12-24T09:57:51;7.27;;;2.23;;
1350;SDS011;669;50.206;9.998;2022-12-24T10:00:25;8.03;;;2.00;;
1350;SDS011;669;50.206;9.998;2022-12-24T10:02:55;17.57;;;3.40;;
1350;SDS011;669;50.206;9.998;2022-12-24T10:05:25;6.57;;;2.43;;
1350;SDS011;669;50.206;9.998;2022-12-24T10:08:02;8.97;;;3.10;;
1350;SDS011;669;50.206;9.998;2022-12-24T10:10:39;7.73;;;2.80;;
1350;SDS011;669;50.206;9.998;2022-12-24T10:13:15;8.80;;;2.30;;
1350;SDS011;669;50.206;9.998;2022-12-24T10:15:52;9.50;;;2.60;;
1350;SDS011;669;50.206;9.998;2022-12-24T10:18:26;7.60;;;2.63;;
1350;SDS011;669;50.206;9.998;2022-12-24T10:21:04;11.77;;;3.20;;
1350;SDS011;669;50.206;9.998;2022-12-24T10:23:39;12.57;;;4.90;;
1350;SDS011;669;50.206;9.998;2022-12-24T10:26:12;12.67;;;3.47;;
1350;SDS011;669;50.206;9.998;2022-12-24T10:28:45;15.03;;;4.60;;
1350;SDS011;669;50.206;9.998;2022-12-24T10:31:19;18.33;;;5.30;;
1350;SDS011;669;50.206;9.998;2022-12-24T10:33:53;9.53;;;4.80;;
1350;SDS011;669;50.206;9.998;2022-12-24T10:36:25;15.30;;;5.03;;
1350;SDS011;669;50.206;9.998;2022-12-24T10:38:55;13.93;;;3.17;;
1350;SDS011;669;50.206;9.998;2022-12-24T10:41:24;12.73;;;3.70;;
1350;SDS011;669;50.206;9.998;2022-12-24T10:43:53;21.43;;;4.60;;
1350;SDS011;669;50.206;9.998;2022-12-24T10:46:26;18.67;;;7.13;;
1350;SDS011;669;50.206;9.998;2022-12-24T10:48:59;14.10;;;3.30;;
1350;SDS011;669;50.206;9.998;2022-12-24T10:51:31;14.23;;;3.40;;
1350;SDS011;669;50.206;9.998;2022-12-24T10:54:05;15.10;;;4.13;;
1350;SDS011;669;50.206;9.998;2022-12-24T10:56:37;18.10;;;4.00;;
1350;SDS011;669;50.206;9.998;2022-12-24T10:59:09;14.80;;;4.60;;
1350;SDS011;669;50.206;9.998;2022-12-24T11:01:51;9.03;;;3.10;;
1350;SDS011;669;50.206;9.998;2022-12-24T11:04:20;10.80;;;5.80;;
1350;SDS011;669;50.206;9.998;2022-12-24T11:06:53;7.00;;;3.80;;
1350;SDS011;669;50.206;9.998;2022-12-24T11:09:23;6.93;;;3.00;;
1350;SDS011;669;50.206;9.998;2022-12-24T11:11:53;11.20;;;2.90;;
1350;SDS011;669;50.206;9.998;2022-12-24T11:14:22;5.53;;;2.80;;
1350;SDS011;669;50.206;9.998;2022-12-24T11:16:53;5.87;;;2.80;;
1350;SDS011;669;50.206;9.998;2022-12-24T11:19:25;8.37;;;2.67;;
1350;SDS011;669;50.206;9.998;2022-12-24T11:21:57;9.33;;;2.90;;
1350;SDS011;669;50.206;9.998;2022-12-24T11:24:29;11.50;;;2.87;;
1350;SDS011;669;50.206;9.998;2022-12-24T11:29:49;10.57;;;3.50;;
1350;SDS011;669;50.206;9.998;2022-12-24T11:32:20;12.63;;;5.07;;
1350;SDS011;669;50.206;9.998;2022-12-24T11:34:48;13.97;;;3.17;;
1350;SDS011;669;50.206;9.998;2022-12-24T11:37:17;15.37;;;3.30;;
1350;SDS011;669;50.206;9.998;2022-12-24T11:39:48;13.30;;;3.33;;
1350;SDS011;669;50.206;9.998;2022-12-24T11:42:21;6.60;;;2.90;;
1350;SDS011;669;50.206;9.998;2022-12-24T11:44:52;6.60;;;1.90;;
1350;SDS011;669;50.206;9.998;2022-12-24T11:47:32;8.00;;;3.37;;
1350;SDS011;669;50.206;9.998;2022-12-24T11:50:23;7.80;;;3.10;;
1350;SDS011;669;50.206;9.998;2022-12-24T11:52:55;8.53;;;2.47;;
1350;SDS011;669;50.206;9.998;2022-12-24T11:55:31;10.03;;;2.23;;
1350;SDS011;669;50.206;9.998;2022-12-24T11:58:04;14.27;;;3.17;;
1350;SDS011;669;50.206;9.998;2022-12-24T12:00:43;10.83;;;2.87;;
1350;SDS011;669;50.206;9.998;2022-12-24T12:03:19;10.03;;;3.17;;
1350;SDS011;669;50.206;9.998;2022-12-24T12:05:57;13.33;;;2.83;;
1350;SDS011;669;50.206;9.998;2022-12-24T12:08:28;7.20;;;2.23;;
1350;SDS011;669;50.206;9.998;2022-12-24T12:10:58;17.33;;;4.60;;
1350;SDS011;669;50.206;9.998;2022-12-24T12:13:28;13.77;;;3.27;;
1350;SDS011;669;50.206;9.998;2022-12-24T12:16:02;7.23;;;2.80;;
1350;SDS011;669;50.206;9.998;2022-12-24T12:18:39;9.70;;;2.40;;
1350;SDS011;669;50.206;9.998;2022-12-24T12:21:13;8.60;;;2.33;;
1350;SDS011;669;50.206;9.998;2022-12-24T12:23:46;4.47;;;2.40;;
1350;SDS011;669;50.206;9.998;2022-12-24T12:26:18;9.77;;;2.40;;
1350;SDS011;669;50.206;9.998;2022-12-24T12:28:51;11.50;;;3.20;;
1350;SDS011;669;50.206;9.998;2022-12-24T12:31:25;12.33;;;3.03;;
1350;SDS011;669;50.206;9.998;2022-12-24T12:33:58;9.27;;;2.53;;
1350;SDS011;669;50.206;9.998;2022-12-24T12:36:33;14.43;;;3.77;;
1350;SDS011;669;50.206;9.998;2022-12-24T12:39:07;11.93;;;2.83;;
1350;SDS011;669;50.206;9.998;2022-12-24T12:41:39;8.30;;;3.13;;
1350;SDS011;669;50.206;9.998;2022-12-24T12:44:18;17.07;;;3.43;;
1350;SDS011;669;50.206;9.998;2022-12-24T12:47:15;8.43;;;2.47;;
1350;SDS011;669;50.206;9.998;2022-12-24T12:50:01;4.80;;;2.33;;
1350;SDS011;669;50.206;9.998;2022-12-24T12:52:40;11.70;;;2.80;;
1350;SDS011;669;50.206;9.998;2022-12-24T12:55:31;11.80;;;2.47;;
1350;SDS011;669;50.206;9.998;2022-12-24T12:58:08;22.50;;;3.03;;
1350;SDS011;669;50.206;9.998;2022-12-24T13:00:43;9.57;;;2.53;;
1350;SDS011;669;50.206;9.998;2022-12-24T13:06:39;8.33;;;2.10;;
1350;SDS011;669;50.206;9.998;2022-12-24T13:09:22;9.73;;;2.63;;
1350;SDS011;669;50.206;9.998;2022-12-24T13:12:10;7.97;;;2.63;;
1350;SDS011;669;50.206;9.998;2022-12-24T13:14:57;11.77;;;3.57;;
1350;SDS011;669;50.206;9.998;2022-12-24T13:18:02;8.80;;;3.40;;
1350;SDS011;669;50.206;9.998;2022-12-24T13:20:45;10.23;;;2.70;;
1350;SDS011;669;50.206;9.998;2022-12-24T13:23:18;8.33;;;3.80;;
1350;SDS011;669;50.206;9.998;2022-12-24T13:25:48;9.73;;;3.40;;
1350;SDS011;669;50.206;9.998;2022-12-24T13:28:32;13.23;;;3.43;;
1350;SDS011;669;50.206;9.998;2022-12-24T13:31:21;10.50;;;3.37;;
1350;SDS011;669;50.206;9.998;2022-12-24T13:33:54;7.07;;;2.73;;
1350;SDS011;669;50.206;9.998;2022-12-24T13:36:23;7.13;;;2.77;;
1350;SDS011;669;50.206;9.998;2022-12-24T13:38:53;10.00;;;2.67;;
1350;SDS011;669;50.206;9.998;2022-12-24T13:44:26;8.33;;;2.70;;
1350;SDS011;669;50.206;9.998;2022-12-24T13:47:17;7.60;;;2.60;;
1350;SDS011;669;50.206;9.998;2022-12-24T13:49:57;15.80;;;2.90;;
1350;SDS011;669;50.206;9.998;2022-12-24T13:52:39;12.67;;;2.97;;
1350;SDS011;669;50.206;9.998;2022-12-24T13:55:19;8.60;;;2.73;;
1350;SDS011;669;50.206;9.998;2022-12-24T13:57:52;14.63;;;3.57;;
1350;SDS011;669;50.206;9.998;2022-12-24T14:00:25;16.43;;;4.17;;
1350;SDS011;669;50.206;9.998;2022-12-24T14:02:58;10.43;;;4.43;;
1350;SDS011;669;50.206;9.998;2022-12-24T14:05:31;17.43;;;5.10;;
1350;SDS011;669;50.206;9.998;2022-12-24T14:08:02;17.87;;;4.33;;
1350;SDS011;669;50.206;9.998;2022-12-24T14:10:35;11.63;;;3.70;;
1350;SDS011;669;50.206;9.998;2022-12-24T14:13:46;18.20;;;3.30;;
1350;SDS011;669;50.206;9.998;2022-12-24T14:16:13;13.50;;;3.10;;
1350;SDS011;669;50.206;9.998;2022-12-24T14:18:45;13.90;;;4.20;;
1350;SDS011;669;50.206;9.998;2022-12-24T14:21:17;14.03;;;3.60;;
1350;SDS011;669;50.206;9.998;2022-12-24T14:23:51;14.83;;;4.37;;
1350;SDS011;669;50.206;9.998;2022-12-24T14:26:23;10.73;;;3.60;;
1350;SDS011;669;50.206;9.998;2022-12-24T14:28:55;9.87;;;3.17;;
1350;SDS011;669;50.206;9.998;2022-12-24T14:31:26;9.33;;;3.80;;
1350;SDS011;669;50.206;9.998;2022-12-24T14:34:04;14.73;;;5.00;;
1350;SDS011;669;50.206;9.998;2022-12-24T14:36:33;11.40;;;3.10;;
1350;SDS011;669;50.206;9.998;2022-12-24T14:39:02;11.80;;;4.90;;
1350;SDS011;669;50.206;9.998;2022-12-24T14:41:39;17.73;;;3.50;;
1350;SDS011;669;50.206;9.998;2022-12-24T14:44:15;19.07;;;4.50;;
1350;SDS011;669;50.206;9.998;2022-12-24T14:46:49;14.10;;;3.20;;
1350;SDS011;669;50.206;9.998;2022-12-24T14:49:24;11.43;;;3.90;;
1350;SDS011;669;50.206;9.998;2022-12-24T14:52:02;20.53;;;7.03;;
1350;SDS011;669;50.206;9.998;2022-12-24T14:54:56;11.33;;;4.20;;
1350;SDS011;669;50.206;9.998;2022-12-24T14:57:25;17.33;;;4.60;;
1350;SDS011;669;50.206;9.998;2022-12-24T14:59:54;19.07;;;4.40;;
1350;SDS011;669;50.206;9.998;2022-12-24T15:02:27;16.00;;;4.20;;
1350;SDS011;669;50.206;9.998;2022-12-24T15:05:04;12.83;;;3.03;;
1350;SDS011;669;50.206;9.998;2022-12-24T15:07:35;22.03;;;4.50;;
1350;SDS011;669;50.206;9.998;2022-12-24T15:10:26;9.00;;;3.30;;
1350;SDS011;669;50.206;9.998;2022-12-24T15:13:01;16.63;;;3.60;;
1350;SDS011;669;50.206;9.998;2022-12-24T15:15:31;18.13;;;3.80;;
1350;SDS011;669;50.206;9.998;2022-12-24T15:18:00;10.07;;;4.00;;
1350;SDS011;669;50.206;9.998;2022-12-24T15:20:30;13.63;;;3.40;;
1350;SDS011;669;50.206;9.998;2022-12-24T15:22:58;19.40;;;4.67;;
1350;SDS011;669;50.206;9.998;2022-12-24T15:25:27;16.13;;;3.97;;
1350;SDS011;669;50.206;9.998;2022-12-24T15:27:58;13.10;;;3.47;;
1350;SDS011;669;50.206;9.998;2022-12-24T15:30:27;15.13;;;3.60;;
1350;SDS011;669;50.206;9.998;2022-12-24T15:32:57;8.97;;;3.80;;
1350;SDS011;669;50.206;9.998;2022-12-24T15:35:29;12.60;;;4.87;;
1350;SDS011;669;50.206;9.998;2022-12-24T15:38:06;7.50;;;3.53;;
1350;SDS011;669;50.206;9.998;2022-12-24T15:40:49;13.97;;;4.40;;
1350;SDS011;669;50.206;9.998;2022-12-24T15:43:19;15.83;;;4.93;;
1350;SDS011;669;50.206;9.998;2022-12-24T15:45:47;18.50;;;3.63;;
1350;SDS011;669;50.206;9.998;2022-12-24T15:48:17;13.23;;;4.70;;
1350;SDS011;669;50.206;9.998;2022-12-24T15:50:49;13.07;;;4.13;;
1350;SDS011;669;50.206;9.998;2022-12-24T15:53:21;17.23;;;4.47;;
1350;SDS011;669;50.206;9.998;2022-12-24T15:55:58;13.07;;;3.60;;
1350;SDS011;669;50.206;9.998;2022-12-24T15:58:34;15.77;;;3.53;;
1350;SDS011;669;50.206;9.998;2022-12-24T16:01:05;15.87;;;4.50;;
1350;SDS011;669;50.206;9.998;2022-12-24T16:03:55;12.73;;;3.70;;